Crane, Texas
Current Conditions -  °F | °C
As of 2:53 PM on Monday 24 Nov 2014 (Local Time) from KODO Reporting Station
Clear Clear  
Wind Chill: 13°   Ceiling: Unl
Heat Index: 13°   Visibility: 10mi
Dew Point: -8°   Wind: 9mph
Humidity: 23%   Direction: 330°NNW
Pressure: 30.03"   Gusts: NA
Location:  31.4°N, 102.35°W
Report Text: KODO 242053Z AUTO 33008KT 10SM CLR 13/M08 A3003 RMK AO2 SLP155 T01331078 58025
Loading
Personal Weather Stations






























Interactive Weather Map New forecast layout! Learn more

10-Day Weather Forecast

Advertisements
Track Severe Weather on mobile